sensor_id;sensor_type;location;lat;lon;timestamp;pressure;altitude;pressure_sealevel;temperature;humidity
23574;BME280;11965;53.640;10.050;2023-04-09T00:01:24;102631.75;;;6.18;100.00
23574;BME280;11965;53.640;10.050;2023-04-09T00:03:53;102633.25;;;6.23;100.00
23574;BME280;11965;53.640;10.050;2023-04-09T00:06:20;102633.00;;;6.26;100.00
23574;BME280;11965;53.640;10.050;2023-04-09T00:08:47;102634.09;;;6.23;100.00
23574;BME280;11965;53.640;10.050;2023-04-09T00:11:15;102629.72;;;6.20;100.00
23574;BME280;11965;53.640;10.050;2023-04-09T00:13:42;102632.72;;;6.17;100.00
23574;BME280;11965;53.640;10.050;2023-04-09T00:16:10;102630.97;;;6.16;100.00
23574;BME280;11965;53.640;10.050;2023-04-09T00:18:37;102634.75;;;6.15;100.00
23574;BME280;11965;53.640;10.050;2023-04-09T00:21:06;102630.47;;;6.11;100.00
23574;BME280;11965;53.640;10.050;2023-04-09T00:23:33;102624.72;;;6.14;100.00
23574;BME280;11965;53.640;10.050;2023-04-09T00:26:01;102626.50;;;6.15;100.00
23574;BME280;11965;53.640;10.050;2023-04-09T00:28:27;102632.00;;;6.15;100.00
23574;BME280;11965;53.640;10.050;2023-04-09T00:30:55;102629.63;;;6.22;100.00
23574;BME280;11965;53.640;10.050;2023-04-09T00:33:21;102624.97;;;6.23;100.00
23574;BME280;11965;53.640;10.050;2023-04-09T00:35:49;102624.09;;;6.22;100.00
23574;BME280;11965;53.640;10.050;2023-04-09T00:38:17;102627.47;;;6.26;100.00
23574;BME280;11965;53.640;10.050;2023-04-09T00:40:47;102624.97;;;6.23;100.00
23574;BME280;11965;53.640;10.050;2023-04-09T00:43:15;102623.84;;;6.14;100.00
23574;BME280;11965;53.640;10.050;2023-04-09T00:45:43;102627.72;;;6.11;100.00
23574;BME280;11965;53.640;10.050;2023-04-09T00:48:12;102623.31;;;6.09;100.00
23574;BME280;11965;53.640;10.050;2023-04-09T00:50:39;102618.19;;;6.04;100.00
23574;BME280;11965;53.640;10.050;2023-04-09T00:53:09;102620.81;;;6.06;100.00
23574;BME280;11965;53.640;10.050;2023-04-09T00:55:40;102621.59;;;6.08;100.00
23574;BME280;11965;53.640;10.050;2023-04-09T00:58:07;102618.59;;;6.11;100.00
23574;BME280;11965;53.640;10.050;2023-04-09T01:00:34;102628.06;;;6.07;100.00
23574;BME280;11965;53.640;10.050;2023-04-09T01:03:04;102619.56;;;6.10;100.00
23574;BME280;11965;53.640;10.050;2023-04-09T01:05:40;102618.94;;;6.06;100.00
23574;BME280;11965;53.640;10.050;2023-04-09T01:08:18;102623.31;;;6.09;100.00
23574;BME280;11965;53.640;10.050;2023-04-09T01:11:01;102624.34;;;6.08;100.00
23574;BME280;11965;53.640;10.050;2023-04-09T01:13:41;102624.97;;;6.11;100.00
23574;BME280;11965;53.640;10.050;2023-04-09T01:16:14;102617.47;;;6.13;100.00
23574;BME280;11965;53.640;10.050;2023-04-09T01:18:49;102621.69;;;6.06;100.00
23574;BME280;11965;53.640;10.050;2023-04-09T01:21:21;102630.72;;;6.08;100.00
23574;BME280;11965;53.640;10.050;2023-04-09T01:23:57;102625.72;;;6.13;100.00
23574;BME280;11965;53.640;10.050;2023-04-09T01:26:54;102620.84;;;6.17;100.00
23574;BME280;11965;53.640;10.050;2023-04-09T01:29:31;102623.84;;;6.14;100.00
23574;BME280;11965;53.640;10.050;2023-04-09T01:32:01;102630.72;;;6.19;100.00
23574;BME280;11965;53.640;10.050;2023-04-09T01:34:29;102629.25;;;6.15;100.00
23574;BME280;11965;53.640;10.050;2023-04-09T01:36:59;102622.72;;;6.16;100.00
23574;BME280;11965;53.640;10.050;2023-04-09T01:39:28;102625.38;;;6.18;100.00
23574;BME280;11965;53.640;10.050;2023-04-09T01:41:56;102627.47;;;6.14;100.00
23574;BME280;11965;53.640;10.050;2023-04-09T01:44:25;102619.94;;;6.05;100.00
23574;BME280;11965;53.640;10.050;2023-04-09T01:46:57;102612.69;;;6.04;100.00
23574;BME280;11965;53.640;10.050;2023-04-09T01:49:25;102607.56;;;6.00;100.00
23574;BME280;11965;53.640;10.050;2023-04-09T01:51:53;102612.16;;;5.99;100.00
23574;BME280;11965;53.640;10.050;2023-04-09T01:54:20;102617.06;;;6.07;100.00
23574;BME280;11965;53.640;10.050;2023-04-09T01:56:48;102617.31;;;6.04;100.00
23574;BME280;11965;53.640;10.050;2023-04-09T01:59:15;102612.91;;;6.01;100.00
23574;BME280;11965;53.640;10.050;2023-04-09T02:01:45;102597.91;;;5.94;100.00
23574;BME280;11965;53.640;10.050;2023-04-09T02:04:21;102602.50;;;5.93;100.00
23574;BME280;11965;53.640;10.050;2023-04-09T02:06:56;102607.16;;;6.04;100.00
23574;BME280;11965;53.640;10.050;2023-04-09T02:09:29;102599.53;;;5.96;100.00
23574;BME280;11965;53.640;10.050;2023-04-09T02:11:58;102600.66;;;5.94;100.00
23574;BME280;11965;53.640;10.050;2023-04-09T02:14:27;102604.50;;;5.91;100.00
23574;BME280;11965;53.640;10.050;2023-04-09T02:16:55;102602.72;;;5.90;100.00
23574;BME280;11965;53.640;10.050;2023-04-09T02:19:23;102599.88;;;5.92;100.00
23574;BME280;11965;53.640;10.050;2023-04-09T02:21:51;102599.75;;;5.93;100.00
23574;BME280;11965;53.640;10.050;2023-04-09T02:24:18;102593.59;;;5.90;100.00
23574;BME280;11965;53.640;10.050;2023-04-09T02:26:46;102591.72;;;5.90;100.00
23574;BME280;11965;53.640;10.050;2023-04-09T02:29:13;102595.16;;;5.94;100.00
23574;BME280;11965;53.640;10.050;2023-04-09T02:31:39;102598.63;;;5.96;100.00
23574;BME280;11965;53.640;10.050;2023-04-09T02:34:07;102596.41;;;6.01;100.00
23574;BME280;11965;53.640;10.050;2023-04-09T02:36:35;102595.53;;;6.01;100.00
23574;BME280;11965;53.640;10.050;2023-04-09T02:39:02;102598.19;;;6.02;100.00
23574;BME280;11965;53.640;10.050;2023-04-09T02:41:29;102603.91;;;5.99;100.00
23574;BME280;11965;53.640;10.050;2023-04-09T02:43:56;102592.44;;;6.05;100.00
23574;BME280;11965;53.640;10.050;2023-04-09T02:46:24;102593.53;;;6.03;100.00
23574;BME280;11965;53.640;10.050;2023-04-09T02:48:51;102588.03;;;6.03;100.00
23574;BME280;11965;53.640;10.050;2023-04-09T02:51:19;102581.25;;;5.95;100.00
23574;BME280;11965;53.640;10.050;2023-04-09T02:53:48;102584.53;;;6.01;100.00
23574;BME280;11965;53.640;10.050;2023-04-09T02:56:14;102581.88;;;5.99;100.00
23574;BME280;11965;53.640;10.050;2023-04-09T02:58:41;102577.28;;;6.00;100.00
23574;BME280;11965;53.640;10.050;2023-04-09T03:01:08;102576.75;;;5.94;100.00
23574;BME280;11965;53.640;10.050;2023-04-09T03:03:36;102573.31;;;5.91;100.00
23574;BME280;11965;53.640;10.050;2023-04-09T03:06:06;102568.50;;;5.94;100.00
23574;BME280;11965;53.640;10.050;2023-04-09T03:08:33;102573.00;;;5.95;100.00
23574;BME280;11965;53.640;10.050;2023-04-09T03:11:01;102576.38;;;5.99;100.00
23574;BME280;11965;53.640;10.050;2023-04-09T03:13:28;102570.41;;;6.05;100.00
23574;BME280;11965;53.640;10.050;2023-04-09T03:15:55;102571.00;;;5.97;100.00
23574;BME280;11965;53.640;10.050;2023-04-09T03:18:22;102564.88;;;5.94;100.00
23574;BME280;11965;53.640;10.050;2023-04-09T03:20:49;102562.75;;;5.97;100.00
23574;BME280;11965;53.640;10.050;2023-04-09T03:23:16;102555.97;;;6.02;100.00
23574;BME280;11965;53.640;10.050;2023-04-09T03:25:45;102558.53;;;6.05;100.00
23574;BME280;11965;53.640;10.050;2023-04-09T03:28:18;102565.88;;;6.04;100.00
23574;BME280;11965;53.640;10.050;2023-04-09T03:30:51;102563.88;;;6.06;100.00
23574;BME280;11965;53.640;10.050;2023-04-09T03:33:18;102556.75;;;6.04;100.00
23574;BME280;11965;53.640;10.050;2023-04-09T03:35:52;102561.22;;;5.93;100.00
23574;BME280;11965;53.640;10.050;2023-04-09T03:38:54;102557.56;;;5.93;100.00
23574;BME280;11965;53.640;10.050;2023-04-09T03:41:29;102550.97;;;5.95;100.00
23574;BME280;11965;53.640;10.050;2023-04-09T03:44:01;102559.38;;;5.94;100.00
23574;BME280;11965;53.640;10.050;2023-04-09T03:46:33;102555.06;;;5.90;100.00
23574;BME280;11965;53.640;10.050;2023-04-09T03:49:01;102560.47;;;5.91;100.00
23574;BME280;11965;53.640;10.050;2023-04-09T03:51:39;102563.97;;;5.93;100.00
23574;BME280;11965;53.640;10.050;2023-04-09T03:54:06;102561.13;;;5.95;100.00
23574;BME280;11965;53.640;10.050;2023-04-09T03:56:33;102564.38;;;6.00;100.00
23574;BME280;11965;53.640;10.050;2023-04-09T03:59:03;102564.88;;;5.94;100.00
23574;BME280;11965;53.640;10.050;2023-04-09T04:01:36;102562.63;;;5.99;100.00
23574;BME280;11965;53.640;10.050;2023-04-09T04:04:03;102574.13;;;6.04;100.00
23574;BME280;11965;53.640;10.050;2023-04-09T04:06:37;102567.75;;;6.04;100.00
23574;BME280;11965;53.640;10.050;2023-04-09T04:09:19;102570.47;;;5.92;100.00
23574;BME280;11965;53.640;10.050;2023-04-09T04:11:52;102569.69;;;5.90;100.00
23574;BME280;11965;53.640;10.050;2023-04-09T04:14:23;102574.22;;;5.91;100.00
23574;BME280;11965;53.640;10.050;2023-04-09T04:16:56;102579.88;;;6.01;100.00
23574;BME280;11965;53.640;10.050;2023-04-09T04:19:27;102569.84;;;5.89;100.00
23574;BME280;11965;53.640;10.050;2023-04-09T04:21:54;102572.59;;;5.89;100.00
23574;BME280;11965;53.640;10.050;2023-04-09T04:24:22;102578.41;;;5.97;100.00
23574;BME280;11965;53.640;10.050;2023-04-09T04:26:49;102577.38;;;5.98;100.00
23574;BME280;11965;53.640;10.050;2023-04-09T04:29:18;102566.38;;;5.98;100.00
23574;BME280;11965;53.640;10.050;2023-04-09T04:31:56;102574.28;;;6.03;100.00
23574;BME280;11965;53.640;10.050;2023-04-09T04:34:26;102576.00;;;6.04;100.00
23574;BME280;11965;53.640;10.050;2023-04-09T04:37:00;102575.91;;;6.05;100.00
23574;BME280;11965;53.640;10.050;2023-04-09T04:39:30;102576.38;;;5.99;100.00
23574;BME280;11965;53.640;10.050;2023-04-09T04:42:06;102574.53;;;6.00;100.00
23574;BME280;11965;53.640;10.050;2023-04-09T04:44:34;102580.91;;;6.00;100.00
23574;BME280;11965;53.640;10.050;2023-04-09T04:47:19;102584.22;;;5.92;100.00
23574;BME280;11965;53.640;10.050;2023-04-09T04:49:46;102584.53;;;6.01;100.00
23574;BME280;11965;53.640;10.050;2023-04-09T04:52:13;102577.63;;;5.95;100.00
23574;BME280;11965;53.640;10.050;2023-04-09T04:54:43;102575.97;;;5.92;100.00
23574;BME280;11965;53.640;10.050;2023-04-09T04:57:16;102578.16;;;6.00;100.00
23574;BME280;11965;53.640;10.050;2023-04-09T04:59:42;102581.28;;;6.07;100.00
23574;BME280;11965;53.640;10.050;2023-04-09T05:02:11;102577.41;;;6.09;100.00
23574;BME280;11965;53.640;10.050;2023-04-09T05:05:00;102588.16;;;6.01;100.00
23574;BME280;11965;53.640;10.050;2023-04-09T05:07:34;102582.53;;;6.03;100.00
23574;BME280;11965;53.640;10.050;2023-04-09T05:10:01;102583.91;;;6.08;100.00
23574;BME280;11965;53.640;10.050;2023-04-09T05:12:34;102584.94;;;6.07;100.00
23574;BME280;11965;53.640;10.050;2023-04-09T05:15:01;102580.53;;;6.05;100.00
23574;BME280;11965;53.640;10.050;2023-04-09T05:17:29;102583.66;;;6.00;100.00
23574;BME280;11965;53.640;10.050;2023-04-09T05:19:56;102590.78;;;6.03;100.00
23574;BME280;11965;53.640;10.050;2023-04-09T05:22:32;102588.41;;;6.09;100.00
23574;BME280;11965;53.640;10.050;2023-04-09T05:25:01;102596.06;;;6.17;100.00
23574;BME280;11965;53.640;10.050;2023-04-09T05:27:28;102587.28;;;6.12;100.00
23574;BME280;11965;53.640;10.050;2023-04-09T05:29:59;102590.28;;;6.09;100.00
23574;BME280;11965;53.640;10.050;2023-04-09T05:32:26;102589.66;;;6.05;100.00
23574;BME280;11965;53.640;10.050;2023-04-09T05:34:54;102591.31;;;6.08;100.00
23574;BME280;11965;53.640;10.050;2023-04-09T05:37:21;102596.19;;;6.15;100.00
23574;BME280;11965;53.640;10.050;2023-04-09T05:39:52;102597.19;;;6.14;100.00
23574;BME280;11965;53.640;10.050;2023-04-09T05:42:19;102595.09;;;6.18;100.00
23574;BME280;11965;53.640;10.050;2023-04-09T05:44:54;102592.69;;;6.25;100.00
23574;BME280;11965;53.640;10.050;2023-04-09T05:47:22;102592.44;;;6.39;100.00
23574;BME280;11965;53.640;10.050;2023-04-09T05:50:03;102598.56;;;6.31;100.00
23574;BME280;11965;53.640;10.050;2023-04-09T05:52:31;102593.59;;;6.48;100.00
23574;BME280;11965;53.640;10.050;2023-04-09T05:55:00;102598.59;;;6.54;100.00
23574;BME280;11965;53.640;10.050;2023-04-09T05:57:38;102593.81;;;6.45;100.00
23574;BME280;11965;53.640;10.050;2023-04-09T06:00:07;102597.22;;;6.37;100.00
23574;BME280;11965;53.640;10.050;2023-04-09T06:02:42;102597.94;;;6.39;100.00
23574;BME280;11965;53.640;10.050;2023-04-09T06:05:09;102596.06;;;6.28;100.00
23574;BME280;11965;53.640;10.050;2023-04-09T06:07:36;102598.22;;;6.36;100.00
23574;BME280;11965;53.640;10.050;2023-04-09T06:10:05;102599.97;;;6.37;100.00
23574;BME280;11965;53.640;10.050;2023-04-09T06:12:33;102604.72;;;6.35;100.00
23574;BME280;11965;53.640;10.050;2023-04-09T06:15:00;102607.72;;;6.43;100.00
23574;BME280;11965;53.640;10.050;2023-04-09T06:17:27;102602.84;;;6.47;100.00
23574;BME280;11965;53.640;10.050;2023-04-09T06:19:54;102606.22;;;6.39;100.00
23574;BME280;11965;53.640;10.050;2023-04-09T06:22:21;102610.34;;;6.45;100.00
23574;BME280;11965;53.640;10.050;2023-04-09T06:24:48;102611.47;;;6.42;100.00
23574;BME280;11965;53.640;10.050;2023-04-09T06:27:16;102603.97;;;6.33;100.00
23574;BME280;11965;53.640;10.050;2023-04-09T06:29:43;102608.00;;;6.40;100.00
23574;BME280;11965;53.640;10.050;2023-04-09T06:32:10;102615.63;;;6.48;100.00
23574;BME280;11965;53.640;10.050;2023-04-09T06:34:37;102606.59;;;6.57;100.00
23574;BME280;11965;53.640;10.050;2023-04-09T06:37:04;102613.25;;;6.54;100.00
23574;BME280;11965;53.640;10.050;2023-04-09T06:39:31;102609.00;;;6.61;100.00
23574;BME280;11965;53.640;10.050;2023-04-09T06:41:58;102610.59;;;6.75;100.00
23574;BME280;11965;53.640;10.050;2023-04-09T06:44:48;102615.09;;;6.76;100.00
23574;BME280;11965;53.640;10.050;2023-04-09T06:47:15;102615.25;;;6.75;100.00
23574;BME280;11965;53.640;10.050;2023-04-09T06:49:42;102615.72;;;6.91;100.00
23574;BME280;11965;53.640;10.050;2023-04-09T06:52:09;102612.84;;;6.81;100.00
23574;BME280;11965;53.640;10.050;2023-04-09T06:54:36;102620.13;;;6.71;100.00
23574;BME280;11965;53.640;10.050;2023-04-09T06:57:03;102616.13;;;6.64;100.00
23574;BME280;11965;53.640;10.050;2023-04-09T06:59:30;102627.00;;;6.66;100.00
23574;BME280;11965;53.640;10.050;2023-04-09T07:01:58;102617.75;;;6.67;100.00
23574;BME280;11965;53.640;10.050;2023-04-09T07:04:25;102621.75;;;6.74;100.00
23574;BME280;11965;53.640;10.050;2023-04-09T07:06:52;102620.00;;;6.73;100.00
23574;BME280;11965;53.640;10.050;2023-04-09T07:09:21;102621.25;;;6.80;100.00
23574;BME280;11965;53.640;10.050;2023-04-09T07:11:48;102623.50;;;6.86;100.00
23574;BME280;11965;53.640;10.050;2023-04-09T07:14:15;102618.75;;;6.88;100.00
23574;BME280;11965;53.640;10.050;2023-04-09T07:16:41;102617.34;;;6.94;100.00
23574;BME280;11965;53.640;10.050;2023-04-09T07:19:12;102620.34;;;7.02;100.00
23574;BME280;11965;53.640;10.050;2023-04-09T07:21:39;102622.13;;;6.92;100.00
23574;BME280;11965;53.640;10.050;2023-04-09T07:24:06;102622.22;;;6.90;100.00
23574;BME280;11965;53.640;10.050;2023-04-09T07:26:33;102622.34;;;7.00;100.00
23574;BME280;11965;53.640;10.050;2023-04-09T07:28:59;102624.97;;;7.13;100.00
23574;BME280;11965;53.640;10.050;2023-04-09T07:31:28;102626.56;;;7.26;100.00
23574;BME280;11965;53.640;10.050;2023-04-09T07:33:55;102626.84;;;7.12;100.00
23574;BME280;11965;53.640;10.050;2023-04-09T07:36:23;102627.84;;;7.11;100.00
23574;BME280;11965;53.640;10.050;2023-04-09T07:38:50;102635.97;;;7.24;100.00
23574;BME280;11965;53.640;10.050;2023-04-09T07:41:17;102619.03;;;7.28;100.00
23574;BME280;11965;53.640;10.050;2023-04-09T07:43:44;102624.94;;;7.24;100.00
23574;BME280;11965;53.640;10.050;2023-04-09T07:46:10;102625.84;;;7.13;100.00
23574;BME280;11965;53.640;10.050;2023-04-09T07:48:43;102620.44;;;7.12;100.00
23574;BME280;11965;53.640;10.050;2023-04-09T07:51:10;102620.59;;;7.10;100.00
23574;BME280;11965;53.640;10.050;2023-04-09T07:53:38;102629.72;;;7.11;100.00
23574;BME280;11965;53.640;10.050;2023-04-09T07:56:06;102626.59;;;7.15;100.00
23574;BME280;11965;53.640;10.050;2023-04-09T07:58:33;102627.56;;;7.25;100.00
23574;BME280;11965;53.640;10.050;2023-04-09T08:01:00;102626.78;;;7.35;100.00
23574;BME280;11965;53.640;10.050;2023-04-09T08:03:27;102625.34;;;7.51;100.00
23574;BME280;11965;53.640;10.050;2023-04-09T08:05:53;102614.41;;;7.61;100.00
23574;BME280;11965;53.640;10.050;2023-04-09T08:08:20;102614.91;;;7.87;100.00
23574;BME280;11965;53.640;10.050;2023-04-09T08:10:49;102616.09;;;7.94;100.00
23574;BME280;11965;53.640;10.050;2023-04-09T08:13:16;102620.41;;;8.08;100.00
23574;BME280;11965;53.640;10.050;2023-04-09T08:15:43;102615.91;;;8.28;100.00
23574;BME280;11965;53.640;10.050;2023-04-09T08:18:09;102622.19;;;8.09;100.00
23574;BME280;11965;53.640;10.050;2023-04-09T08:20:36;102620.63;;;7.95;100.00
23574;BME280;11965;53.640;10.050;2023-04-09T08:23:09;102613.44;;;8.04;100.00
23574;BME280;11965;53.640;10.050;2023-04-09T08:25:36;102610.94;;;8.01;100.00
23574;BME280;11965;53.640;10.050;2023-04-09T08:28:04;102614.75;;;7.89;100.00
23574;BME280;11965;53.640;10.050;2023-04-09T08:30:31;102611.44;;;7.95;100.00
23574;BME280;11965;53.640;10.050;2023-04-09T08:32:59;102615.84;;;8.18;100.00
23574;BME280;11965;53.640;10.050;2023-04-09T08:35:26;102612.75;;;8.12;100.00
23574;BME280;11965;53.640;10.050;2023-04-09T08:37:53;102620.69;;;8.47;100.00
23574;BME280;11965;53.640;10.050;2023-04-09T08:40:21;102620.69;;;8.47;100.00
23574;BME280;11965;53.640;10.050;2023-04-09T08:42:53;102620.13;;;8.32;100.00
23574;BME280;11965;53.640;10.050;2023-04-09T08:45:22;102625.63;;;8.23;100.00
23574;BME280;11965;53.640;10.050;2023-04-09T08:47:50;102625.81;;;8.10;100.00
23574;BME280;11965;53.640;10.050;2023-04-09T08:50:17;102625.88;;;8.40;100.00
23574;BME280;11965;53.640;10.050;2023-04-09T08:52:45;102623.13;;;8.71;100.00
23574;BME280;11965;53.640;10.050;2023-04-09T08:55:13;102627.28;;;8.87;100.00
23574;BME280;11965;53.640;10.050;2023-04-09T08:57:40;102622.00;;;8.83;100.00
23574;BME280;11965;53.640;10.050;2023-04-09T09:00:09;102626.06;;;8.49;100.00
23574;BME280;11965;53.640;10.050;2023-04-09T09:02:37;102619.84;;;8.56;100.00
23574;BME280;11965;53.640;10.050;2023-04-09T09:05:05;102621.34;;;8.60;100.00
23574;BME280;11965;53.640;10.050;2023-04-09T09:07:32;102621.81;;;8.75;100.00
23574;BME280;11965;53.640;10.050;2023-04-09T09:10:01;102624.44;;;8.46;100.00
23574;BME280;11965;53.640;10.050;2023-04-09T09:12:34;102624.06;;;8.51;100.00
23574;BME280;11965;53.640;10.050;2023-04-09T09:15:02;102627.50;;;8.74;100.00
23574;BME280;11965;53.640;10.050;2023-04-09T09:17:29;102631.84;;;8.67;100.00
23574;BME280;11965;53.640;10.050;2023-04-09T09:19:57;102630.38;;;8.62;100.00
23574;BME280;11965;53.640;10.050;2023-04-09T09:22:24;102630.28;;;8.74;100.00
23574;BME280;11965;53.640;10.050;2023-04-09T09:24:52;102632.41;;;8.60;100.00
23574;BME280;11965;53.640;10.050;2023-04-09T09:27:34;102630.53;;;8.40;100.00
23574;BME280;11965;53.640;10.050;2023-04-09T09:30:05;102635.38;;;8.48;100.00
23574;BME280;11965;53.640;10.050;2023-04-09T09:32:34;102633.22;;;8.51;100.00
23574;BME280;11965;53.640;10.050;2023-04-09T09:35:04;102626.09;;;8.79;100.00
23574;BME280;11965;53.640;10.050;2023-04-09T09:37:32;102626.09;;;8.79;100.00
23574;BME280;11965;53.640;10.050;2023-04-09T09:40:00;102631.19;;;8.53;100.00
23574;BME280;11965;53.640;10.050;2023-04-09T09:42:28;102624.78;;;8.53;100.00
23574;BME280;11965;53.640;10.050;2023-04-09T09:44:57;102629.06;;;8.67;100.00
23574;BME280;11965;53.640;10.050;2023-04-09T09:47:25;102622.91;;;8.84;100.00
23574;BME280;11965;53.640;10.050;2023-04-09T09:49:53;102621.34;;;9.11;100.00
23574;BME280;11965;53.640;10.050;2023-04-09T09:52:24;102619.78;;;9.18;100.00
23574;BME280;11965;53.640;10.050;2023-04-09T09:54:54;102618.19;;;9.35;100.00
23574;BME280;11965;53.640;10.050;2023-04-09T09:57:24;102615.16;;;9.47;100.00
23574;BME280;11965;53.640;10.050;2023-04-09T10:00:01;102616.19;;;9.46;99.35
23574;BME280;11965;53.640;10.050;2023-04-09T10:02:43;102610.69;;;9.76;98.51
23574;BME280;11965;53.640;10.050;2023-04-09T10:05:14;102611.09;;;9.51;98.44
23574;BME280;11965;53.640;10.050;2023-04-09T10:07:43;102614.59;;;9.54;97.87
23574;BME280;11965;53.640;10.050;2023-04-09T10:10:11;102612.00;;;9.62;100.00
23574;BME280;11965;53.640;10.050;2023-04-09T10:12:38;102605.13;;;9.56;100.00
23574;BME280;11965;53.640;10.050;2023-04-09T10:15:08;102603.41;;;9.65;97.55
23574;BME280;11965;53.640;10.050;2023-04-09T10:17:35;102610.97;;;9.92;94.52
23574;BME280;11965;53.640;10.050;2023-04-09T10:20:09;102604.81;;;10.08;90.95
23574;BME280;11965;53.640;10.050;2023-04-09T10:22:37;102611.22;;;9.99;91.70
23574;BME280;11965;53.640;10.050;2023-04-09T10:25:07;102603.94;;;9.88;91.92
23574;BME280;11965;53.640;10.050;2023-04-09T10:27:34;102600.59;;;9.74;91.07
23574;BME280;11965;53.640;10.050;2023-04-09T10:30:02;102601.03;;;9.80;91.64
23574;BME280;11965;53.640;10.050;2023-04-09T10:32:35;102610.53;;;9.87;92.96
23574;BME280;11965;53.640;10.050;2023-04-09T10:35:03;102598.28;;;9.60;93.43
23574;BME280;11965;53.640;10.050;2023-04-09T10:37:34;102604.53;;;9.52;96.19
23574;BME280;11965;53.640;10.050;2023-04-09T10:40:02;102599.28;;;9.49;93.37
23574;BME280;11965;53.640;10.050;2023-04-09T10:42:34;102599.44;;;9.48;94.80
23574;BME280;11965;53.640;10.050;2023-04-09T10:45:05;102603.38;;;9.36;97.00
23574;BME280;11965;53.640;10.050;2023-04-09T10:47:34;102606.16;;;9.65;94.50
23574;BME280;11965;53.640;10.050;2023-04-09T10:50:15;102604.81;;;9.88;93.42
23574;BME280;11965;53.640;10.050;2023-04-09T10:52:42;102595.75;;;10.15;93.87
23574;BME280;11965;53.640;10.050;2023-04-09T10:55:29;102586.53;;;10.25;93.75
23574;BME280;11965;53.640;10.050;2023-04-09T10:57:59;102592.38;;;10.22;92.62
23574;BME280;11965;53.640;10.050;2023-04-09T11:00:26;102582.03;;;10.61;89.53
23574;BME280;11965;53.640;10.050;2023-04-09T11:03:19;102569.94;;;10.90;88.35
23574;BME280;11965;53.640;10.050;2023-04-09T11:05:49;102574.13;;;11.21;82.43
23574;BME280;11965;53.640;10.050;2023-04-09T11:08:17;102582.09;;;11.06;82.96
23574;BME280;11965;53.640;10.050;2023-04-09T11:10:46;102586.13;;;10.94;86.05
23574;BME280;11965;53.640;10.050;2023-04-09T11:13:16;102578.56;;;11.14;84.87
23574;BME280;11965;53.640;10.050;2023-04-09T11:15:44;102578.00;;;11.11;83.41
23574;BME280;11965;53.640;10.050;2023-04-09T11:18:16;102574.97;;;11.04;86.06
23574;BME280;11965;53.640;10.050;2023-04-09T11:20:45;102572.69;;;10.99;85.42
23574;BME280;11965;53.640;10.050;2023-04-09T11:23:12;102570.47;;;11.39;81.13
23574;BME280;11965;53.640;10.050;2023-04-09T11:25:40;102564.91;;;11.92;80.20
23574;BME280;11965;53.640;10.050;2023-04-09T11:28:07;102562.75;;;12.30;75.33
23574;BME280;11965;53.640;10.050;2023-04-09T11:30:35;102568.53;;;12.63;74.43
23574;BME280;11965;53.640;10.050;2023-04-09T11:33:03;102573.72;;;12.32;74.81
23574;BME280;11965;53.640;10.050;2023-04-09T11:35:33;102571.00;;;11.88;78.94
23574;BME280;11965;53.640;10.050;2023-04-09T11:38:05;102567.00;;;12.16;76.72
23574;BME280;11965;53.640;10.050;2023-04-09T11:40:33;102565.66;;;12.21;73.83
23574;BME280;11965;53.640;10.050;2023-04-09T11:43:00;102564.94;;;12.19;75.10
23574;BME280;11965;53.640;10.050;2023-04-09T11:45:29;102567.22;;;11.79;77.05
23574;BME280;11965;53.640;10.050;2023-04-09T11:47:59;102559.81;;;12.06;76.54
23574;BME280;11965;53.640;10.050;2023-04-09T11:50:28;102560.09;;;11.94;77.69
23574;BME280;11965;53.640;10.050;2023-04-09T11:52:56;102560.47;;;12.00;75.57
23574;BME280;11965;53.640;10.050;2023-04-09T11:55:25;102549.22;;;12.01;76.03
23574;BME280;11965;53.640;10.050;2023-04-09T11:57:56;102552.81;;;11.40;77.93
23574;BME280;11965;53.640;10.050;2023-04-09T12:00:26;102555.66;;;11.30;80.60
23574;BME280;11965;53.640;10.050;2023-04-09T12:03:03;102559.75;;;11.08;80.48
23574;BME280;11965;53.640;10.050;2023-04-09T12:05:33;102555.84;;;11.01;80.36
23574;BME280;11965;53.640;10.050;2023-04-09T12:08:02;102549.00;;;11.41;80.49
23574;BME280;11965;53.640;10.050;2023-04-09T12:10:33;102542.16;;;11.89;79.94
23574;BME280;11965;53.640;10.050;2023-04-09T12:13:01;102555.72;;;11.92;75.96
23574;BME280;11965;53.640;10.050;2023-04-09T12:15:31;102543.28;;;12.30;72.63
23574;BME280;11965;53.640;10.050;2023-04-09T12:18:01;102537.00;;;12.54;70.69
23574;BME280;11965;53.640;10.050;2023-04-09T12:20:30;102532.47;;;12.53;71.52
23574;BME280;11965;53.640;10.050;2023-04-09T12:22:59;102537.25;;;12.09;76.75
23574;BME280;11965;53.640;10.050;2023-04-09T12:25:29;102537.63;;;12.14;72.43
23574;BME280;11965;53.640;10.050;2023-04-09T12:27:58;102532.28;;;12.47;70.83
23574;BME280;11965;53.640;10.050;2023-04-09T12:30:26;102530.75;;;11.56;74.27
23574;BME280;11965;53.640;10.050;2023-04-09T12:32:53;102523.91;;;11.86;75.23
23574;BME280;11965;53.640;10.050;2023-04-09T12:35:22;102524.06;;;11.49;77.20
23574;BME280;11965;53.640;10.050;2023-04-09T12:37:49;102524.66;;;11.53;76.80
23574;BME280;11965;53.640;10.050;2023-04-09T12:40:17;102524.13;;;11.75;74.87
23574;BME280;11965;53.640;10.050;2023-04-09T12:42:45;102515.81;;;11.75;77.21
23574;BME280;11965;53.640;10.050;2023-04-09T12:45:14;102522.16;;;12.11;72.62
23574;BME280;11965;53.640;10.050;2023-04-09T12:47:42;102514.25;;;12.25;73.17
23574;BME280;11965;53.640;10.050;2023-04-09T12:50:11;102518.84;;;12.08;73.21
23574;BME280;11965;53.640;10.050;2023-04-09T12:52:41;102517.19;;;11.35;76.36